sensor_id;sensor_type;location;lat;lon;timestamp;temperature;humidity
21039;DHT22;10678;51.002;4.786;2022-11-20T00:00:24;5.40;99.90
21039;DHT22;10678;51.002;4.786;2022-11-20T00:02:49;5.40;99.90
21039;DHT22;10678;51.002;4.786;2022-11-20T00:05:15;5.40;99.90
21039;DHT22;10678;51.002;4.786;2022-11-20T00:07:40;5.40;99.90
21039;DHT22;10678;51.002;4.786;2022-11-20T00:10:07;5.50;99.90
21039;DHT22;10678;51.002;4.786;2022-11-20T00:12:32;5.50;99.90
21039;DHT22;10678;51.002;4.786;2022-11-20T00:14:58;5.40;99.90
21039;DHT22;10678;51.002;4.786;2022-11-20T00:17:24;5.50;99.90
21039;DHT22;10678;51.002;4.786;2022-11-20T00:19:49;5.40;99.90
21039;DHT22;10678;51.002;4.786;2022-11-20T00:22:15;5.50;99.90
21039;DHT22;10678;51.002;4.786;2022-11-20T00:24:40;5.40;99.90
21039;DHT22;10678;51.002;4.786;2022-11-20T00:27:06;5.40;99.90
21039;DHT22;10678;51.002;4.786;2022-11-20T00:29:31;5.50;99.90
21039;DHT22;10678;51.002;4.786;2022-11-20T00:31:57;5.60;99.90
21039;DHT22;10678;51.002;4.786;2022-11-20T00:34:22;5.60;99.90
21039;DHT22;10678;51.002;4.786;2022-11-20T00:36:48;5.60;99.90
21039;DHT22;10678;51.002;4.786;2022-11-20T00:39:13;5.50;99.90
21039;DHT22;10678;51.002;4.786;2022-11-20T00:41:39;5.60;99.90
21039;DHT22;10678;51.002;4.786;2022-11-20T00:44:04;5.50;99.90
21039;DHT22;10678;51.002;4.786;2022-11-20T00:46:30;5.50;99.90
21039;DHT22;10678;51.002;4.786;2022-11-20T00:48:56;5.60;99.90
21039;DHT22;10678;51.002;4.786;2022-11-20T00:51:24;5.60;99.90
21039;DHT22;10678;51.002;4.786;2022-11-20T00:53:49;5.70;99.90
21039;DHT22;10678;51.002;4.786;2022-11-20T00:56:17;5.70;99.90
21039;DHT22;10678;51.002;4.786;2022-11-20T00:58:45;5.80;99.90
21039;DHT22;10678;51.002;4.786;2022-11-20T01:01:13;5.80;99.90
21039;DHT22;10678;51.002;4.786;2022-11-20T01:03:42;5.80;99.90
21039;DHT22;10678;51.002;4.786;2022-11-20T01:06:16;5.80;99.90
21039;DHT22;10678;51.002;4.786;2022-11-20T01:08:42;5.80;99.90
21039;DHT22;10678;51.002;4.786;2022-11-20T01:11:17;5.80;99.90
21039;DHT22;10678;51.002;4.786;2022-11-20T01:13:44;5.70;99.90
21039;DHT22;10678;51.002;4.786;2022-11-20T01:16:22;5.80;99.90
21039;DHT22;10678;51.002;4.786;2022-11-20T01:18:50;5.70;99.90
21039;DHT22;10678;51.002;4.786;2022-11-20T01:21:27;5.80;99.90
21039;DHT22;10678;51.002;4.786;2022-11-20T01:23:54;5.80;99.90
21039;DHT22;10678;51.002;4.786;2022-11-20T01:26:22;5.80;99.90
21039;DHT22;10678;51.002;4.786;2022-11-20T01:28:48;5.90;99.90
21039;DHT22;10678;51.002;4.786;2022-11-20T01:31:25;5.90;99.90
21039;DHT22;10678;51.002;4.786;2022-11-20T01:33:53;5.60;99.90
21039;DHT22;10678;51.002;4.786;2022-11-20T01:36:21;5.50;99.90
21039;DHT22;10678;51.002;4.786;2022-11-20T01:38:47;5.40;99.90
21039;DHT22;10678;51.002;4.786;2022-11-20T01:41:14;5.50;99.90
21039;DHT22;10678;51.002;4.786;2022-11-20T01:44:01;5.70;99.90
21039;DHT22;10678;51.002;4.786;2022-11-20T01:46:27;5.70;99.90
21039;DHT22;10678;51.002;4.786;2022-11-20T01:49:10;5.70;99.90
21039;DHT22;10678;51.002;4.786;2022-11-20T01:51:44;5.70;99.90
21039;DHT22;10678;51.002;4.786;2022-11-20T01:54:17;5.80;99.90
21039;DHT22;10678;51.002;4.786;2022-11-20T01:56:46;5.80;99.90
21039;DHT22;10678;51.002;4.786;2022-11-20T01:59:14;5.70;99.90
21039;DHT22;10678;51.002;4.786;2022-11-20T02:01:40;5.80;99.90
21039;DHT22;10678;51.002;4.786;2022-11-20T02:04:07;5.80;99.90
21039;DHT22;10678;51.002;4.786;2022-11-20T02:06:38;5.80;99.90
21039;DHT22;10678;51.002;4.786;2022-11-20T02:09:06;5.80;99.90
21039;DHT22;10678;51.002;4.786;2022-11-20T02:11:31;5.80;99.90
21039;DHT22;10678;51.002;4.786;2022-11-20T02:13:58;5.80;99.90
21039;DHT22;10678;51.002;4.786;2022-11-20T02:16:27;5.70;99.90
21039;DHT22;10678;51.002;4.786;2022-11-20T02:18:55;5.70;99.90
21039;DHT22;10678;51.002;4.786;2022-11-20T02:21:37;5.70;99.90
21039;DHT22;10678;51.002;4.786;2022-11-20T02:26:59;5.80;99.90
21039;DHT22;10678;51.002;4.786;2022-11-20T02:32:05;5.80;99.90
21039;DHT22;10678;51.002;4.786;2022-11-20T02:34:31;5.80;99.90
21039;DHT22;10678;51.002;4.786;2022-11-20T02:36:57;5.80;99.90
21039;DHT22;10678;51.002;4.786;2022-11-20T02:39:25;5.60;99.90
21039;DHT22;10678;51.002;4.786;2022-11-20T02:41:53;5.70;99.90
21039;DHT22;10678;51.002;4.786;2022-11-20T02:44:20;5.80;99.90
21039;DHT22;10678;51.002;4.786;2022-11-20T02:46:46;5.70;99.90
21039;DHT22;10678;51.002;4.786;2022-11-20T02:49:11;5.70;99.90
21039;DHT22;10678;51.002;4.786;2022-11-20T02:51:37;5.70;99.90
21039;DHT22;10678;51.002;4.786;2022-11-20T02:54:02;5.70;99.90
21039;DHT22;10678;51.002;4.786;2022-11-20T02:56:28;5.80;99.90
21039;DHT22;10678;51.002;4.786;2022-11-20T02:58:54;5.70;99.90
21039;DHT22;10678;51.002;4.786;2022-11-20T03:01:19;5.70;99.90
21039;DHT22;10678;51.002;4.786;2022-11-20T03:03:45;5.60;99.90
21039;DHT22;10678;51.002;4.786;2022-11-20T03:06:11;5.60;99.90
21039;DHT22;10678;51.002;4.786;2022-11-20T03:08:37;5.60;99.90
21039;DHT22;10678;51.002;4.786;2022-11-20T03:11:06;5.70;99.90
21039;DHT22;10678;51.002;4.786;2022-11-20T03:13:32;5.60;99.90
21039;DHT22;10678;51.002;4.786;2022-11-20T03:16:03;5.70;99.90
21039;DHT22;10678;51.002;4.786;2022-11-20T03:18:29;5.70;99.90
21039;DHT22;10678;51.002;4.786;2022-11-20T03:20:58;5.70;99.90
21039;DHT22;10678;51.002;4.786;2022-11-20T03:23:25;5.70;99.90
21039;DHT22;10678;51.002;4.786;2022-11-20T03:25:50;5.70;99.90
21039;DHT22;10678;51.002;4.786;2022-11-20T03:28:16;5.80;99.90
21039;DHT22;10678;51.002;4.786;2022-11-20T03:30:42;5.80;99.90
21039;DHT22;10678;51.002;4.786;2022-11-20T03:33:07;5.70;99.90
21039;DHT22;10678;51.002;4.786;2022-11-20T03:35:33;5.70;99.90
21039;DHT22;10678;51.002;4.786;2022-11-20T03:37:58;5.80;99.90
21039;DHT22;10678;51.002;4.786;2022-11-20T03:40:24;5.80;99.90
21039;DHT22;10678;51.002;4.786;2022-11-20T03:42:49;5.80;99.90
21039;DHT22;10678;51.002;4.786;2022-11-20T03:45:18;5.80;99.90
21039;DHT22;10678;51.002;4.786;2022-11-20T03:47:44;5.70;99.90
21039;DHT22;10678;51.002;4.786;2022-11-20T03:50:12;5.70;99.90
21039;DHT22;10678;51.002;4.786;2022-11-20T03:52:38;5.70;99.90
21039;DHT22;10678;51.002;4.786;2022-11-20T03:55:05;5.70;99.90
21039;DHT22;10678;51.002;4.786;2022-11-20T03:57:31;5.80;99.90
21039;DHT22;10678;51.002;4.786;2022-11-20T03:59:56;5.70;99.90
21039;DHT22;10678;51.002;4.786;2022-11-20T04:02:22;5.70;99.90
21039;DHT22;10678;51.002;4.786;2022-11-20T04:04:47;5.70;99.90
21039;DHT22;10678;51.002;4.786;2022-11-20T04:07:13;5.80;99.90
21039;DHT22;10678;51.002;4.786;2022-11-20T04:09:38;5.70;99.90
21039;DHT22;10678;51.002;4.786;2022-11-20T04:12:04;5.60;99.90
21039;DHT22;10678;51.002;4.786;2022-11-20T04:14:30;5.50;99.90
21039;DHT22;10678;51.002;4.786;2022-11-20T04:16:55;5.40;99.90
21039;DHT22;10678;51.002;4.786;2022-11-20T04:19:21;5.60;99.90
21039;DHT22;10678;51.002;4.786;2022-11-20T04:21:46;5.50;99.90
21039;DHT22;10678;51.002;4.786;2022-11-20T04:24:12;5.60;99.90
21039;DHT22;10678;51.002;4.786;2022-11-20T04:26:38;5.70;99.90
21039;DHT22;10678;51.002;4.786;2022-11-20T04:29:04;5.70;99.90
21039;DHT22;10678;51.002;4.786;2022-11-20T04:31:33;5.70;99.90
21039;DHT22;10678;51.002;4.786;2022-11-20T04:34:03;5.70;99.90
21039;DHT22;10678;51.002;4.786;2022-11-20T04:36:29;5.70;99.90
21039;DHT22;10678;51.002;4.786;2022-11-20T04:39:00;5.80;99.90
21039;DHT22;10678;51.002;4.786;2022-11-20T04:41:29;5.70;99.90
21039;DHT22;10678;51.002;4.786;2022-11-20T04:43:58;5.80;99.90
21039;DHT22;10678;51.002;4.786;2022-11-20T04:46:26;5.80;99.90
21039;DHT22;10678;51.002;4.786;2022-11-20T04:48:52;5.70;99.90
21039;DHT22;10678;51.002;4.786;2022-11-20T04:51:18;5.80;99.90
21039;DHT22;10678;51.002;4.786;2022-11-20T04:53:44;5.80;99.90
21039;DHT22;10678;51.002;4.786;2022-11-20T04:56:11;5.70;99.90
21039;DHT22;10678;51.002;4.786;2022-11-20T04:58:37;5.70;99.90
21039;DHT22;10678;51.002;4.786;2022-11-20T05:01:08;5.80;99.90
21039;DHT22;10678;51.002;4.786;2022-11-20T05:03:34;5.70;99.90
21039;DHT22;10678;51.002;4.786;2022-11-20T05:06:01;5.60;99.90
21039;DHT22;10678;51.002;4.786;2022-11-20T05:08:28;5.60;99.90
21039;DHT22;10678;51.002;4.786;2022-11-20T05:10:53;5.60;99.90
21039;DHT22;10678;51.002;4.786;2022-11-20T05:13:19;5.60;99.90
21039;DHT22;10678;51.002;4.786;2022-11-20T05:15:45;5.60;99.90
21039;DHT22;10678;51.002;4.786;2022-11-20T05:18:10;5.50;99.90
21039;DHT22;10678;51.002;4.786;2022-11-20T05:20:36;5.60;99.90
21039;DHT22;10678;51.002;4.786;2022-11-20T05:23:01;5.60;99.90
21039;DHT22;10678;51.002;4.786;2022-11-20T05:25:27;5.40;99.90
21039;DHT22;10678;51.002;4.786;2022-11-20T05:27:53;5.40;99.90
21039;DHT22;10678;51.002;4.786;2022-11-20T05:30:19;5.50;99.90
21039;DHT22;10678;51.002;4.786;2022-11-20T05:32:44;5.70;99.90
21039;DHT22;10678;51.002;4.786;2022-11-20T05:35:10;5.60;99.90
21039;DHT22;10678;51.002;4.786;2022-11-20T05:37:35;5.60;99.90
21039;DHT22;10678;51.002;4.786;2022-11-20T05:40:01;5.60;99.90
21039;DHT22;10678;51.002;4.786;2022-11-20T05:42:30;5.70;99.90
21039;DHT22;10678;51.002;4.786;2022-11-20T05:44:57;5.40;99.90
21039;DHT22;10678;51.002;4.786;2022-11-20T05:47:22;5.50;99.90
21039;DHT22;10678;51.002;4.786;2022-11-20T05:49:48;5.50;99.90
21039;DHT22;10678;51.002;4.786;2022-11-20T05:52:13;5.40;99.90
21039;DHT22;10678;51.002;4.786;2022-11-20T05:54:39;5.50;99.90
21039;DHT22;10678;51.002;4.786;2022-11-20T05:57:04;5.50;99.90
21039;DHT22;10678;51.002;4.786;2022-11-20T05:59:30;5.60;99.90
21039;DHT22;10678;51.002;4.786;2022-11-20T06:01:56;5.50;99.90
21039;DHT22;10678;51.002;4.786;2022-11-20T06:04:21;5.50;99.90
21039;DHT22;10678;51.002;4.786;2022-11-20T06:06:47;5.50;99.90
21039;DHT22;10678;51.002;4.786;2022-11-20T06:09:12;5.30;99.90
21039;DHT22;10678;51.002;4.786;2022-11-20T06:11:38;5.40;99.90
21039;DHT22;10678;51.002;4.786;2022-11-20T06:14:04;5.40;99.90
21039;DHT22;10678;51.002;4.786;2022-11-20T06:16:29;5.40;99.90
21039;DHT22;10678;51.002;4.786;2022-11-20T06:18:55;5.50;99.90
21039;DHT22;10678;51.002;4.786;2022-11-20T06:21:22;5.40;99.90
21039;DHT22;10678;51.002;4.786;2022-11-20T06:23:48;5.30;99.90
21039;DHT22;10678;51.002;4.786;2022-11-20T06:26:18;5.40;99.90
21039;DHT22;10678;51.002;4.786;2022-11-20T06:28:44;5.30;99.90
21039;DHT22;10678;51.002;4.786;2022-11-20T06:31:11;5.30;99.90
21039;DHT22;10678;51.002;4.786;2022-11-20T06:33:37;5.40;99.90
21039;DHT22;10678;51.002;4.786;2022-11-20T06:36:03;5.20;99.90
21039;DHT22;10678;51.002;4.786;2022-11-20T06:38:29;5.00;99.90
21039;DHT22;10678;51.002;4.786;2022-11-20T06:40:55;4.70;99.90
21039;DHT22;10678;51.002;4.786;2022-11-20T06:43:22;4.70;99.90
21039;DHT22;10678;51.002;4.786;2022-11-20T06:45:54;4.50;99.90
21039;DHT22;10678;51.002;4.786;2022-11-20T06:48:20;4.60;99.90
21039;DHT22;10678;51.002;4.786;2022-11-20T06:50:46;4.60;99.90
21039;DHT22;10678;51.002;4.786;2022-11-20T06:53:12;4.70;99.90
21039;DHT22;10678;51.002;4.786;2022-11-20T06:55:42;4.70;99.90
21039;DHT22;10678;51.002;4.786;2022-11-20T06:58:09;4.70;99.90
21039;DHT22;10678;51.002;4.786;2022-11-20T07:00:34;4.70;99.90
21039;DHT22;10678;51.002;4.786;2022-11-20T07:03:03;4.80;99.90
21039;DHT22;10678;51.002;4.786;2022-11-20T07:05:29;4.80;99.90
21039;DHT22;10678;51.002;4.786;2022-11-20T07:07:57;4.80;99.90
21039;DHT22;10678;51.002;4.786;2022-11-20T07:10:24;4.80;99.90
21039;DHT22;10678;51.002;4.786;2022-11-20T07:12:50;4.90;99.90
21039;DHT22;10678;51.002;4.786;2022-11-20T07:15:17;5.00;99.90
21039;DHT22;10678;51.002;4.786;2022-11-20T07:17:42;5.10;99.90
21039;DHT22;10678;51.002;4.786;2022-11-20T07:20:09;5.30;99.90
21039;DHT22;10678;51.002;4.786;2022-11-20T07:22:34;5.30;99.90
21039;DHT22;10678;51.002;4.786;2022-11-20T07:25:00;5.20;99.90
21039;DHT22;10678;51.002;4.786;2022-11-20T07:27:27;5.20;99.90
21039;DHT22;10678;51.002;4.786;2022-11-20T07:29:53;5.40;99.90
21039;DHT22;10678;51.002;4.786;2022-11-20T07:32:18;5.20;99.90
21039;DHT22;10678;51.002;4.786;2022-11-20T07:34:44;5.30;99.90
21039;DHT22;10678;51.002;4.786;2022-11-20T07:37:09;5.30;99.90
21039;DHT22;10678;51.002;4.786;2022-11-20T07:39:35;5.30;99.90
21039;DHT22;10678;51.002;4.786;2022-11-20T07:42:01;5.50;99.90
21039;DHT22;10678;51.002;4.786;2022-11-20T07:44:26;5.50;99.90
21039;DHT22;10678;51.002;4.786;2022-11-20T07:46:52;5.60;99.90
21039;DHT22;10678;51.002;4.786;2022-11-20T07:49:17;5.70;99.90
21039;DHT22;10678;51.002;4.786;2022-11-20T07:51:43;5.70;99.90
21039;DHT22;10678;51.002;4.786;2022-11-20T07:54:08;5.70;99.90
21039;DHT22;10678;51.002;4.786;2022-11-20T07:56:34;5.90;99.90
21039;DHT22;10678;51.002;4.786;2022-11-20T07:59:00;6.10;99.90
21039;DHT22;10678;51.002;4.786;2022-11-20T08:01:25;6.20;99.90
21039;DHT22;10678;51.002;4.786;2022-11-20T08:03:51;6.10;99.90
21039;DHT22;10678;51.002;4.786;2022-11-20T08:06:16;5.90;99.90
21039;DHT22;10678;51.002;4.786;2022-11-20T08:08:43;6.00;99.90
21039;DHT22;10678;51.002;4.786;2022-11-20T08:11:09;6.10;99.90
21039;DHT22;10678;51.002;4.786;2022-11-20T08:13:54;6.10;99.90
21039;DHT22;10678;51.002;4.786;2022-11-20T08:16:45;5.90;99.90
21039;DHT22;10678;51.002;4.786;2022-11-20T08:19:12;5.90;99.90
21039;DHT22;10678;51.002;4.786;2022-11-20T08:21:38;6.00;99.90
21039;DHT22;10678;51.002;4.786;2022-11-20T08:24:04;6.20;99.90
21039;DHT22;10678;51.002;4.786;2022-11-20T08:26:29;6.40;99.90
21039;DHT22;10678;51.002;4.786;2022-11-20T08:28:56;6.30;99.90
21039;DHT22;10678;51.002;4.786;2022-11-20T08:31:22;6.40;99.90
21039;DHT22;10678;51.002;4.786;2022-11-20T08:33:48;6.60;99.90
21039;DHT22;10678;51.002;4.786;2022-11-20T08:36:14;6.70;99.90
21039;DHT22;10678;51.002;4.786;2022-11-20T08:38:40;6.80;99.90
21039;DHT22;10678;51.002;4.786;2022-11-20T08:41:05;6.90;99.90
21039;DHT22;10678;51.002;4.786;2022-11-20T08:43:52;6.90;99.90
21039;DHT22;10678;51.002;4.786;2022-11-20T08:46:18;7.00;99.90
21039;DHT22;10678;51.002;4.786;2022-11-20T08:48:44;7.00;99.90
21039;DHT22;10678;51.002;4.786;2022-11-20T08:51:11;7.10;99.90
21039;DHT22;10678;51.002;4.786;2022-11-20T08:53:37;7.20;99.90
21039;DHT22;10678;51.002;4.786;2022-11-20T08:56:03;7.20;99.90
21039;DHT22;10678;51.002;4.786;2022-11-20T08:58:28;7.20;99.90
21039;DHT22;10678;51.002;4.786;2022-11-20T09:00:54;7.30;99.90
21039;DHT22;10678;51.002;4.786;2022-11-20T09:03:20;7.40;99.90
21039;DHT22;10678;51.002;4.786;2022-11-20T09:05:45;7.40;99.90
21039;DHT22;10678;51.002;4.786;2022-11-20T09:08:11;7.30;99.90
21039;DHT22;10678;51.002;4.786;2022-11-20T09:10:37;7.40;99.90
21039;DHT22;10678;51.002;4.786;2022-11-20T09:13:05;7.50;99.90
21039;DHT22;10678;51.002;4.786;2022-11-20T09:15:30;7.60;99.90
21039;DHT22;10678;51.002;4.786;2022-11-20T09:18:01;7.60;99.90
21039;DHT22;10678;51.002;4.786;2022-11-20T09:20:29;7.50;99.90
21039;DHT22;10678;51.002;4.786;2022-11-20T09:22:57;7.50;99.90
21039;DHT22;10678;51.002;4.786;2022-11-20T09:25:23;7.70;99.90
21039;DHT22;10678;51.002;4.786;2022-11-20T09:27:57;7.70;99.90
21039;DHT22;10678;51.002;4.786;2022-11-20T09:30:23;7.60;99.90
21039;DHT22;10678;51.002;4.786;2022-11-20T09:32:49;7.80;99.90
21039;DHT22;10678;51.002;4.786;2022-11-20T09:35:15;7.70;99.90
21039;DHT22;10678;51.002;4.786;2022-11-20T09:37:41;7.70;99.90
21039;DHT22;10678;51.002;4.786;2022-11-20T09:40:20;7.80;99.90
21039;DHT22;10678;51.002;4.786;2022-11-20T09:52:28;7.90;99.90
21039;DHT22;10678;51.002;4.786;2022-11-20T09:54:58;8.00;99.90
21039;DHT22;10678;51.002;4.786;2022-11-20T09:57:35;8.00;99.90
21039;DHT22;10678;51.002;4.786;2022-11-20T10:00:06;8.00;99.90
21039;DHT22;10678;51.002;4.786;2022-11-20T10:02:59;8.00;99.90
21039;DHT22;10678;51.002;4.786;2022-11-20T10:05:40;8.20;99.90
21039;DHT22;10678;51.002;4.786;2022-11-20T10:08:22;8.30;99.90
21039;DHT22;10678;51.002;4.786;2022-11-20T10:19:04;8.70;99.90
21039;DHT22;10678;51.002;4.786;2022-11-20T10:30:11;9.20;99.90
21039;DHT22;10678;51.002;4.786;2022-11-20T10:41:03;9.60;99.90
21039;DHT22;10678;51.002;4.786;2022-11-20T10:43:50;9.40;99.90
21039;DHT22;10678;51.002;4.786;2022-11-20T10:46:20;9.50;99.90
21039;DHT22;10678;51.002;4.786;2022-11-20T10:48:48;9.50;99.90
21039;DHT22;10678;51.002;4.786;2022-11-20T10:51:27;9.40;99.90
21039;DHT22;10678;51.002;4.786;2022-11-20T10:57:15;9.20;99.90
21039;DHT22;10678;51.002;4.786;2022-11-20T11:00:09;9.30;99.90
21039;DHT22;10678;51.002;4.786;2022-11-20T11:02:42;9.40;99.90
21039;DHT22;10678;51.002;4.786;2022-11-20T11:05:42;9.60;99.90
21039;DHT22;10678;51.002;4.786;2022-11-20T11:08:15;9.70;99.90
21039;DHT22;10678;51.002;4.786;2022-11-20T11:10:56;9.80;99.90
21039;DHT22;10678;51.002;4.786;2022-11-20T11:13:24;9.70;99.90
21039;DHT22;10678;51.002;4.786;2022-11-20T11:15:50;9.90;99.90
21039;DHT22;10678;51.002;4.786;2022-11-20T11:18:30;10.10;99.90
21039;DHT22;10678;51.002;4.786;2022-11-20T11:20:57;10.20;99.90
21039;DHT22;10678;51.002;4.786;2022-11-20T11:23:36;10.20;99.90
21039;DHT22;10678;51.002;4.786;2022-11-20T11:26:05;10.30;99.90
21039;DHT22;10678;51.002;4.786;2022-11-20T11:28:32;10.60;99.90
21039;DHT22;10678;51.002;4.786;2022-11-20T11:30:57;10.70;99.90
21039;DHT22;10678;51.002;4.786;2022-11-20T11:33:24;10.70;99.90
21039;DHT22;10678;51.002;4.786;2022-11-20T11:35:55;10.90;99.90
21039;DHT22;10678;51.002;4.786;2022-11-20T11:38:39;11.00;99.90
21039;DHT22;10678;51.002;4.786;2022-11-20T11:41:09;11.30;99.90
21039;DHT22;10678;51.002;4.786;2022-11-20T11:43:37;11.50;99.90
21039;DHT22;10678;51.002;4.786;2022-11-20T11:46:26;11.70;99.90
21039;DHT22;10678;51.002;4.786;2022-11-20T11:49:19;11.70;99.90
21039;DHT22;10678;51.002;4.786;2022-11-20T11:52:18;11.60;99.90
21039;DHT22;10678;51.002;4.786;2022-11-20T11:54:55;11.60;99.90
21039;DHT22;10678;51.002;4.786;2022-11-20T11:57:29;11.50;99.90
21039;DHT22;10678;51.002;4.786;2022-11-20T12:07:57;11.40;99.90
21039;DHT22;10678;51.002;4.786;2022-11-20T12:10:36;11.50;99.90
21039;DHT22;10678;51.002;4.786;2022-11-20T12:13:30;11.70;99.90
21039;DHT22;10678;51.002;4.786;2022-11-20T12:15:58;11.80;99.90
21039;DHT22;10678;51.002;4.786;2022-11-20T12:18:25;11.80;99.90
21039;DHT22;10678;51.002;4.786;2022-11-20T12:26:16;11.60;99.90
21039;DHT22;10678;51.002;4.786;2022-11-20T12:28:57;11.60;99.90
21039;DHT22;10678;51.002;4.786;2022-11-20T12:31:33;11.40;99.90
21039;DHT22;10678;51.002;4.786;2022-11-20T12:34:43;11.30;99.90
21039;DHT22;10678;51.002;4.786;2022-11-20T12:37:48;11.20;99.90
21039;DHT22;10678;51.002;4.786;2022-11-20T12:43:27;11.00;99.90
21039;DHT22;10678;51.002;4.786;2022-11-20T12:46:42;10.90;99.90
21039;DHT22;10678;51.002;4.786;2022-11-20T12:57:41;10.20;99.90
21039;DHT22;10678;51.002;4.786;2022-11-20T13:08:20;9.90;99.90
21039;DHT22;10678;51.002;4.786;2022-11-20T13:19:15;9.70;99.90
21039;DHT22;10678;51.002;4.786;2022-11-20T13:21:46;9.70;99.90
21039;DHT22;10678;51.002;4.786;2022-11-20T13:24:21;9.90;99.90
21039;DHT22;10678;51.002;4.786;2022-11-20T13:27:17;9.90;99.90
21039;DHT22;10678;51.002;4.786;2022-11-20T13:29:46;9.90;99.90
21039;DHT22;10678;51.002;4.786;2022-11-20T13:32:17;9.90;99.90
21039;DHT22;10678;51.002;4.786;2022-11-20T13:34:57;10.10;99.90
21039;DHT22;10678;51.002;4.786;2022-11-20T13:37:35;10.20;99.90
21039;DHT22;10678;51.002;4.786;2022-11-20T13:45:22;10.20;99.90
21039;DHT22;10678;51.002;4.786;2022-11-20T13:47:49;10.30;99.90
21039;DHT22;10678;51.002;4.786;2022-11-20T13:50:15;10.40;99.90
21039;DHT22;10678;51.002;4.786;2022-11-20T13:55:55;10.40;99.90
21039;DHT22;10678;51.002;4.786;2022-11-20T14:01:00;10.40;99.90
21039;DHT22;10678;51.002;4.786;2022-11-20T14:03:29;10.30;99.90
21039;DHT22;10678;51.002;4.786;2022-11-20T14:05:59;10.10;99.90
21039;DHT22;10678;51.002;4.786;2022-11-20T14:08:38;10.00;99.90
21039;DHT22;10678;51.002;4.786;2022-11-20T14:13:30;9.90;99.90
21039;DHT22;10678;51.002;4.786;2022-11-20T14:15:59;9.90;99.90
21039;DHT22;10678;51.002;4.786;2022-11-20T14:18:26;9.90;99.90
21039;DHT22;10678;51.002;4.786;2022-11-20T14:20:52;9.90;99.90
21039;DHT22;10678;51.002;4.786;2022-11-20T14:23:28;9.90;99.90
21039;DHT22;10678;51.002;4.786;2022-11-20T14:25:54;9.90;99.90
21039;DHT22;10678;51.002;4.786;2022-11-20T14:28:28;9.80;99.90
21039;DHT22;10678;51.002;4.786;2022-11-20T14:30:54;9.80;99.90
21039;DHT22;10678;51.002;4.786;2022-11-20T14:33:22;9.80;99.90
21039;DHT22;10678;51.002;4.786;2022-11-20T14:35:55;9.80;99.90
21039;DHT22;10678;51.002;4.786;2022-11-20T14:38:27;9.70;99.90
21039;DHT22;10678;51.002;4.786;2022-11-20T14:40:53;9.60;99.90
21039;DHT22;10678;51.002;4.786;2022-11-20T14:43:28;9.80;99.90
21039;DHT22;10678;51.002;4.786;2022-11-20T14:46:08;9.70;99.90
21039;DHT22;10678;51.002;4.786;2022-11-20T14:48:51;9.60;99.90
21039;DHT22;10678;51.002;4.786;2022-11-20T14:51:32;9.60;99.90
21039;DHT22;10678;51.002;4.786;2022-11-20T14:54:16;9.50;99.90
21039;DHT22;10678;51.002;4.786;2022-11-20T14:56:42;9.40;99.90
21039;DHT22;10678;51.002;4.786;2022-11-20T14:59:25;9.50;99.90
21039;DHT22;10678;51.002;4.786;2022-11-20T15:02:07;9.30;99.90
21039;DHT22;10678;51.002;4.786;2022-11-20T15:04:34;9.30;99.90
21039;DHT22;10678;51.002;4.786;2022-11-20T15:07:09;9.40;99.90
21039;DHT22;10678;51.002;4.786;2022-11-20T15:09:34;9.40;99.90
21039;DHT22;10678;51.002;4.786;2022-11-20T15:12:01;9.40;99.90
21039;DHT22;10678;51.002;4.786;2022-11-20T15:14:30;9.40;99.90
21039;DHT22;10678;51.002;4.786;2022-11-20T15:16:57;9.50;99.90
21039;DHT22;10678;51.002;4.786;2022-11-20T15:19:25;9.60;99.90
21039;DHT22;10678;51.002;4.786;2022-11-20T15:21:52;9.60;99.90
21039;DHT22;10678;51.002;4.786;2022-11-20T15:24:18;9.50;99.90
21039;DHT22;10678;51.002;4.786;2022-11-20T15:26:44;9.30;99.90
21039;DHT22;10678;51.002;4.786;2022-11-20T15:29:11;9.50;99.90
21039;DHT22;10678;51.002;4.786;2022-11-20T15:31:37;9.60;99.90
21039;DHT22;10678;51.002;4.786;2022-11-20T15:34:11;9.60;99.90
21039;DHT22;10678;51.002;4.786;2022-11-20T15:36:38;9.50;99.90
21039;DHT22;10678;51.002;4.786;2022-11-20T15:39:04;9.50;99.90
21039;DHT22;10678;51.002;4.786;2022-11-20T15:41:29;9.50;99.90
21039;DHT22;10678;51.002;4.786;2022-11-20T15:43:55;9.40;99.90
21039;DHT22;10678;51.002;4.786;2022-11-20T15:46:26;9.40;99.90
21039;DHT22;10678;51.002;4.786;2022-11-20T15:48:56;9.50;99.90
21039;DHT22;10678;51.002;4.786;2022-11-20T15:51:27;9.40;99.90
21039;DHT22;10678;51.002;4.786;2022-11-20T15:53:55;9.50;99.90
21039;DHT22;10678;51.002;4.786;2022-11-20T15:56:20;9.60;99.90
21039;DHT22;10678;51.002;4.786;2022-11-20T15:58:46;9.80;99.90
21039;DHT22;10678;51.002;4.786;2022-11-20T16:01:14;9.70;99.90
21039;DHT22;10678;51.002;4.786;2022-11-20T16:03:40;9.60;99.90
21039;DHT22;10678;51.002;4.786;2022-11-20T16:06:06;9.60;99.90
21039;DHT22;10678;51.002;4.786;2022-11-20T16:08:31;9.50;99.90
21039;DHT22;10678;51.002;4.786;2022-11-20T16:10:57;9.50;99.90
21039;DHT22;10678;51.002;4.786;2022-11-20T16:13:23;9.50;99.90
21039;DHT22;10678;51.002;4.786;2022-11-20T16:18:46;9.50;99.90
21039;DHT22;10678;51.002;4.786;2022-11-20T16:21:11;9.50;99.90
21039;DHT22;10678;51.002;4.786;2022-11-20T16:23:38;9.40;99.90
21039;DHT22;10678;51.002;4.786;2022-11-20T16:26:12;9.40;99.90
21039;DHT22;10678;51.002;4.786;2022-11-20T16:28:38;9.30;99.90
21039;DHT22;10678;51.002;4.786;2022-11-20T16:31:15;9.30;99.90
21039;DHT22;10678;51.002;4.786;2022-11-20T16:33:41;9.50;99.90
21039;DHT22;10678;51.002;4.786;2022-11-20T16:36:14;9.40;99.90
21039;DHT22;10678;51.002;4.786;2022-11-20T16:38:41;9.50;99.90
21039;DHT22;10678;51.002;4.786;2022-11-20T16:41:07;9.50;99.90
21039;DHT22;10678;51.002;4.786;2022-11-20T16:43:46;9.40;99.90
21039;DHT22;10678;51.002;4.786;2022-11-20T16:46:14;9.40;99.90
21039;DHT22;10678;51.002;4.786;2022-11-20T16:48:39;9.20;99.90
21039;DHT22;10678;51.002;4.786;2022-11-20T16:51:11;9.20;99.90
21039;DHT22;10678;51.002;4.786;2022-11-20T16:53:38;9.10;99.90
21039;DHT22;10678;51.002;4.786;2022-11-20T16:56:09;9.10;99.90
21039;DHT22;10678;51.002;4.786;2022-11-20T16:58:35;9.00;99.90
21039;DHT22;10678;51.002;4.786;2022-11-20T17:01:07;9.20;99.90
21039;DHT22;10678;51.002;4.786;2022-11-20T17:03:36;9.00;99.90
21039;DHT22;10678;51.002;4.786;2022-11-20T17:06:13;8.90;99.90
21039;DHT22;10678;51.002;4.786;2022-11-20T17:08:39;9.00;99.90
21039;DHT22;10678;51.002;4.786;2022-11-20T17:11:11;9.00;99.90
21039;DHT22;10678;51.002;4.786;2022-11-20T17:13:37;8.80;99.90
21039;DHT22;10678;51.002;4.786;2022-11-20T17:16:05;8.90;99.90
21039;DHT22;10678;51.002;4.786;2022-11-20T17:18:31;8.90;99.90
21039;DHT22;10678;51.002;4.786;2022-11-20T17:20:58;9.00;99.90
21039;DHT22;10678;51.002;4.786;2022-11-20T17:23:28;8.90;99.90
21039;DHT22;10678;51.002;4.786;2022-11-20T17:26:01;9.00;99.90
21039;DHT22;10678;51.002;4.786;2022-11-20T17:28:28;9.10;99.90
21039;DHT22;10678;51.002;4.786;2022-11-20T17:30:58;9.10;99.90
21039;DHT22;10678;51.002;4.786;2022-11-20T17:33:24;9.10;99.90
21039;DHT22;10678;51.002;4.786;2022-11-20T17:35:49;9.20;99.90
21039;DHT22;10678;51.002;4.786;2022-11-20T17:38:15;9.20;99.90